SBOSBO CUN / MMUN
Speedbird OnlineSpeedbird Online CUN / MMUN

Cancún International Airport
07:29 24°C

Location Cancun, Mexico
Latitude: 21.036500930800003
Longitude: -86.8770980835
Web Airport Website | Wikipedia
Altitude 7 Meter / 22 Feet
Distance 7,990 KM / 4,965 Miles
from London.
Time Zone UTC -5 hours (America/Cancun)
Codes IATA: CUN
ICAO: MMUN
Currency £1 equals MXN 21.76
Runways
RunwayLength (m)Surface
12L2800Asphalt
12R3500Asphalt
30L3500Asphalt
30R2800Asphalt
Radio
TypeDescriptionFrequency
APPAPP120.4
ARRARR120.4
ATISATIS127.7
CLDCLNC DEL122.1
DEPDEP119.8
GNDGND121.7
TWR NorthTower North118.1
TWR STower South118.6
Live ATC
METAR MMUN 291142Z 06006KT 7SM FEW015 SCT100 24/19 A3005 RMK SLP175 52004 900 8/130 CI ISOL SC
TAF TAF MMUN 291051Z 2912/3012 06005KT 6SM HZ SCT015 BKN120 TX28/2920Z TN24/3010Z BECMG 2917/2918 05012KT BKN015 BKN120 TEMPO 2919/2923 VC TS BKN015CB FM300200 08005KT P6SM SCT015
Weather As Of 29 Nov 2023 07:29
Description Scattered clouds
Wind 11 km/h from North-East (60°)
Cloud Cover 40%
Precipitation Rain: none, Snow: none
Sunrise 07:06
Sunset 18:05
Lounges Mera Business Lounge , Terminal 3, Departure level
Rotations During the last 90 days there were
82 flights from LGW
1 flights from YQX
84 flights to LGW



Support Speedbird Online

© 2017-2023 Speedbird Online